الصفحة الرئيسية
METAR-TAF:

METAR-TAF

مطار :

بورت مورسبي, بابوا نيو غينياالجديدة

دائرة عرض: 09-26S, خط طول: 147-13E, ارتفاع: 38 متر

مراقبة الطقس الحالي

تاريخ ووقت الإصدار 1ساعة و 29 دقيقة قبل الساعة 16:00UTC
ريح 7 عقدة من الشمال/الشمال الغربي
درجة الحرارة 25°درجة مئوية
الرطوبة 94%
ضغط 1009 hPa
الرؤية 10 كم أو أكثر
غيوم قليلة على ارتفاع 500 قدم
غيوم قليلة على ارتفاع 4000 قدم

METAR: AYPY 221600Z 34007KT 9999 FEW005 FEW040 25/24 Q1009

زمن: 03:29 (17:29 UTC)

توقعات

تاريخ ووقت الإصدار 14ساعات و 29 دقيقة قبل الساعة 03:00UTC
التوقعات صالحة من22 الساعة 06 UTC إلى 23 الساعة 06 UTC
ريح 6 عقدة من الغرب
الرؤية 10 كم أو أكثر
غيوم مفككة على ارتفاع 1800 قدم
زخات من الأمطار الخفيفة
نظرية الاحتمالات 30%
بين IN و TE UTC
الرؤية: 5000 متر
غيوم مفككة على ارتفاع 1000 قدم
غيوم قليلة على ارتفاع 1800 قدم, مزنة ركامية.
عاصفة رعدية, مطر

TAF: AYPY 220300Z 2206/2306 26006KT 9999 -SHRA BKN018 PROB30 INTER 2206/2209 5000 TSRA BKN010 FEW018CB RMK T 30 28 27 27 Q 1007 1008 1010 1009 -------------------------------------------------------------------

أرصاد الطقس والتوقعات من أكثر من 4000 مطار (تقارير الطقس للمطار METAR والتنبؤ بالطقس بالمطارTAF).

المحطات المتاحة هي النقط الصفراء والحمراء على الخريطة.

حرك المؤشر فوق النقطة لمعرفة اسم المحطة.

ثم انقر لمعرفة أرصاد وتوقعات الطقس.

لتغيير الخارطة: اضغط على الأزرار الخضراء مع رمز الصليب الأسود للتكبير. على الزر الأخضر مع شرطة للتصغير، أو على الأسهم الخضراء للخرائط المجاورة.


METAR-TAF: